sensor_id;sensor_type;location;lat;lon;timestamp;temperature;humidity
63383;DHT22;49512;48.744;9.176;2023-04-01T00:00:08;15.80;99.90
63383;DHT22;49512;48.744;9.176;2023-04-01T00:02:34;15.80;99.90
63383;DHT22;49512;48.744;9.176;2023-04-01T00:05:00;15.80;99.90
63383;DHT22;49512;48.744;9.176;2023-04-01T00:07:26;15.70;99.90
63383;DHT22;49512;48.744;9.176;2023-04-01T00:09:52;15.80;99.90
63383;DHT22;49512;48.744;9.176;2023-04-01T00:12:17;15.80;99.90
63383;DHT22;49512;48.744;9.176;2023-04-01T00:14:43;15.80;99.90
63383;DHT22;49512;48.744;9.176;2023-04-01T00:17:08;15.70;99.90
63383;DHT22;49512;48.744;9.176;2023-04-01T00:19:34;15.80;99.90
63383;DHT22;49512;48.744;9.176;2023-04-01T00:21:59;15.70;99.90
63383;DHT22;49512;48.744;9.176;2023-04-01T00:24:25;15.80;99.90
63383;DHT22;49512;48.744;9.176;2023-04-01T00:26:50;15.70;99.90
63383;DHT22;49512;48.744;9.176;2023-04-01T00:29:16;15.80;99.90
63383;DHT22;49512;48.744;9.176;2023-04-01T00:31:41;15.70;99.90
63383;DHT22;49512;48.744;9.176;2023-04-01T00:34:07;15.70;99.90
63383;DHT22;49512;48.744;9.176;2023-04-01T00:36:32;15.80;99.90
63383;DHT22;49512;48.744;9.176;2023-04-01T00:38:58;15.80;99.90
63383;DHT22;49512;48.744;9.176;2023-04-01T00:41:24;15.80;99.90
63383;DHT22;49512;48.744;9.176;2023-04-01T00:43:51;15.80;99.90
63383;DHT22;49512;48.744;9.176;2023-04-01T00:46:17;15.80;99.90
63383;DHT22;49512;48.744;9.176;2023-04-01T00:48:47;15.80;99.90
63383;DHT22;49512;48.744;9.176;2023-04-01T00:51:23;15.80;99.90
63383;DHT22;49512;48.744;9.176;2023-04-01T00:53:51;15.80;99.90
63383;DHT22;49512;48.744;9.176;2023-04-01T00:56:19;15.80;99.90
63383;DHT22;49512;48.744;9.176;2023-04-01T00:58:47;15.90;99.90
63383;DHT22;49512;48.744;9.176;2023-04-01T01:01:14;15.80;99.90
63383;DHT22;49512;48.744;9.176;2023-04-01T01:03:40;15.80;99.90
63383;DHT22;49512;48.744;9.176;2023-04-01T01:08:52;15.80;99.90
63383;DHT22;49512;48.744;9.176;2023-04-01T01:11:30;15.80;99.90
63383;DHT22;49512;48.744;9.176;2023-04-01T01:14:01;15.80;99.90
63383;DHT22;49512;48.744;9.176;2023-04-01T01:16:30;15.80;99.90
63383;DHT22;49512;48.744;9.176;2023-04-01T01:24:20;15.80;99.90
63383;DHT22;49512;48.744;9.176;2023-04-01T01:26:52;15.80;99.90
63383;DHT22;49512;48.744;9.176;2023-04-01T01:34:43;15.80;99.90
63383;DHT22;49512;48.744;9.176;2023-04-01T01:37:16;15.80;99.90
63383;DHT22;49512;48.744;9.176;2023-04-01T01:39:43;15.80;99.90
63383;DHT22;49512;48.744;9.176;2023-04-01T01:42:09;15.80;99.90
63383;DHT22;49512;48.744;9.176;2023-04-01T01:44:36;15.80;99.90
63383;DHT22;49512;48.744;9.176;2023-04-01T01:47:03;15.80;99.90
63383;DHT22;49512;48.744;9.176;2023-04-01T01:49:29;15.80;99.90
63383;DHT22;49512;48.744;9.176;2023-04-01T01:51:56;15.80;99.90
63383;DHT22;49512;48.744;9.176;2023-04-01T01:54:21;15.70;99.90
63383;DHT22;49512;48.744;9.176;2023-04-01T01:56:48;15.70;99.90
63383;DHT22;49512;48.744;9.176;2023-04-01T01:59:14;15.80;99.90
63383;DHT22;49512;48.744;9.176;2023-04-01T02:01:41;15.70;99.90
63383;DHT22;49512;48.744;9.176;2023-04-01T02:04:08;15.70;99.90
63383;DHT22;49512;48.744;9.176;2023-04-01T02:06:34;15.70;99.90
63383;DHT22;49512;48.744;9.176;2023-04-01T02:09:03;15.80;99.90
63383;DHT22;49512;48.744;9.176;2023-04-01T02:11:34;15.80;99.90
63383;DHT22;49512;48.744;9.176;2023-04-01T02:14:03;15.70;99.90
63383;DHT22;49512;48.744;9.176;2023-04-01T02:19:14;15.80;99.90
63383;DHT22;49512;48.744;9.176;2023-04-01T02:21:49;15.80;99.90
63383;DHT22;49512;48.744;9.176;2023-04-01T02:24:16;17.10;99.90
63383;DHT22;49512;48.744;9.176;2023-04-01T02:26:42;17.00;99.90
63383;DHT22;49512;48.744;9.176;2023-04-01T02:29:09;15.80;99.90
63383;DHT22;49512;48.744;9.176;2023-04-01T02:31:36;15.70;99.90
63383;DHT22;49512;48.744;9.176;2023-04-01T02:34:02;15.70;99.90
63383;DHT22;49512;48.744;9.176;2023-04-01T02:36:28;15.70;99.90
63383;DHT22;49512;48.744;9.176;2023-04-01T02:38:54;15.80;99.90
63383;DHT22;49512;48.744;9.176;2023-04-01T02:41:21;15.70;99.90
63383;DHT22;49512;48.744;9.176;2023-04-01T02:43:46;15.70;99.90
63383;DHT22;49512;48.744;9.176;2023-04-01T02:46:12;15.70;99.90
63383;DHT22;49512;48.744;9.176;2023-04-01T02:48:37;15.80;99.90
63383;DHT22;49512;48.744;9.176;2023-04-01T02:51:03;15.70;99.90
63383;DHT22;49512;48.744;9.176;2023-04-01T02:53:29;15.70;99.90
63383;DHT22;49512;48.744;9.176;2023-04-01T02:55:54;15.70;99.90
63383;DHT22;49512;48.744;9.176;2023-04-01T02:58:21;15.80;99.90
63383;DHT22;49512;48.744;9.176;2023-04-01T03:00:46;15.70;99.90
63383;DHT22;49512;48.744;9.176;2023-04-01T03:03:12;15.60;99.90
63383;DHT22;49512;48.744;9.176;2023-04-01T03:05:38;15.70;99.90
63383;DHT22;49512;48.744;9.176;2023-04-01T03:08:04;15.70;99.90
63383;DHT22;49512;48.744;9.176;2023-04-01T03:10:29;15.70;99.90
63383;DHT22;49512;48.744;9.176;2023-04-01T03:12:55;15.70;99.90
63383;DHT22;49512;48.744;9.176;2023-04-01T03:15:20;15.70;99.90
63383;DHT22;49512;48.744;9.176;2023-04-01T03:17:46;15.70;99.90
63383;DHT22;49512;48.744;9.176;2023-04-01T03:20:12;15.70;99.90
63383;DHT22;49512;48.744;9.176;2023-04-01T03:22:39;15.70;99.90
63383;DHT22;49512;48.744;9.176;2023-04-01T03:25:05;15.70;99.90
63383;DHT22;49512;48.744;9.176;2023-04-01T03:27:31;15.70;99.90
63383;DHT22;49512;48.744;9.176;2023-04-01T03:29:56;15.70;99.90
63383;DHT22;49512;48.744;9.176;2023-04-01T03:32:22;15.70;99.90
63383;DHT22;49512;48.744;9.176;2023-04-01T03:34:47;15.70;99.90
63383;DHT22;49512;48.744;9.176;2023-04-01T03:37:13;15.70;99.90
63383;DHT22;49512;48.744;9.176;2023-04-01T03:39:39;15.70;99.90
63383;DHT22;49512;48.744;9.176;2023-04-01T03:42:04;15.70;99.90
63383;DHT22;49512;48.744;9.176;2023-04-01T03:44:32;15.70;99.90
63383;DHT22;49512;48.744;9.176;2023-04-01T03:46:58;15.70;99.90
63383;DHT22;49512;48.744;9.176;2023-04-01T03:49:23;15.70;99.90
63383;DHT22;49512;48.744;9.176;2023-04-01T03:51:49;15.70;99.90
63383;DHT22;49512;48.744;9.176;2023-04-01T03:54:14;15.70;99.90
63383;DHT22;49512;48.744;9.176;2023-04-01T03:56:40;15.60;99.90
63383;DHT22;49512;48.744;9.176;2023-04-01T03:59:06;15.70;99.90
63383;DHT22;49512;48.744;9.176;2023-04-01T04:01:32;15.70;99.90
63383;DHT22;49512;48.744;9.176;2023-04-01T04:03:58;15.70;99.90
63383;DHT22;49512;48.744;9.176;2023-04-01T04:06:23;15.70;99.90
63383;DHT22;49512;48.744;9.176;2023-04-01T04:08:49;15.70;99.90
63383;DHT22;49512;48.744;9.176;2023-04-01T04:11:15;15.70;99.90
63383;DHT22;49512;48.744;9.176;2023-04-01T04:13:41;15.60;99.90
63383;DHT22;49512;48.744;9.176;2023-04-01T04:16:06;15.70;99.90
63383;DHT22;49512;48.744;9.176;2023-04-01T04:18:32;15.70;99.90
63383;DHT22;49512;48.744;9.176;2023-04-01T04:20:57;15.70;99.90
63383;DHT22;49512;48.744;9.176;2023-04-01T04:23:23;15.70;99.90
63383;DHT22;49512;48.744;9.176;2023-04-01T04:25:58;15.70;99.90
63383;DHT22;49512;48.744;9.176;2023-04-01T04:28:24;15.70;99.90
63383;DHT22;49512;48.744;9.176;2023-04-01T04:30:50;15.70;99.90
63383;DHT22;49512;48.744;9.176;2023-04-01T04:33:16;15.70;99.90
63383;DHT22;49512;48.744;9.176;2023-04-01T04:35:41;15.70;99.90
63383;DHT22;49512;48.744;9.176;2023-04-01T04:38:07;15.70;99.90
63383;DHT22;49512;48.744;9.176;2023-04-01T04:40:32;15.70;99.90
63383;DHT22;49512;48.744;9.176;2023-04-01T04:42:58;15.70;99.90
63383;DHT22;49512;48.744;9.176;2023-04-01T04:45:23;15.70;99.90
63383;DHT22;49512;48.744;9.176;2023-04-01T04:47:49;15.70;99.90
63383;DHT22;49512;48.744;9.176;2023-04-01T04:50:14;15.70;99.90
63383;DHT22;49512;48.744;9.176;2023-04-01T04:52:40;15.70;99.90
63383;DHT22;49512;48.744;9.176;2023-04-01T04:55:05;15.70;99.90
63383;DHT22;49512;48.744;9.176;2023-04-01T04:57:31;15.70;99.90
63383;DHT22;49512;48.744;9.176;2023-04-01T04:59:56;15.70;99.90
63383;DHT22;49512;48.744;9.176;2023-04-01T05:02:22;15.70;99.90
63383;DHT22;49512;48.744;9.176;2023-04-01T05:04:47;15.60;99.90
63383;DHT22;49512;48.744;9.176;2023-04-01T05:07:13;15.60;99.90
63383;DHT22;49512;48.744;9.176;2023-04-01T05:09:38;15.70;99.90
63383;DHT22;49512;48.744;9.176;2023-04-01T05:12:04;15.70;99.90
63383;DHT22;49512;48.744;9.176;2023-04-01T05:14:29;15.70;99.90
63383;DHT22;49512;48.744;9.176;2023-04-01T05:16:55;15.60;99.90
63383;DHT22;49512;48.744;9.176;2023-04-01T05:19:22;15.70;99.90
63383;DHT22;49512;48.744;9.176;2023-04-01T05:21:47;15.60;99.90
63383;DHT22;49512;48.744;9.176;2023-04-01T05:24:13;15.60;99.90
63383;DHT22;49512;48.744;9.176;2023-04-01T05:26:38;15.60;99.90
63383;DHT22;49512;48.744;9.176;2023-04-01T05:29:04;15.70;99.90
63383;DHT22;49512;48.744;9.176;2023-04-01T05:31:30;15.60;99.90
63383;DHT22;49512;48.744;9.176;2023-04-01T05:33:56;15.60;99.90
63383;DHT22;49512;48.744;9.176;2023-04-01T05:36:21;15.60;99.90
63383;DHT22;49512;48.744;9.176;2023-04-01T05:38:47;15.70;99.90
63383;DHT22;49512;48.744;9.176;2023-04-01T05:41:13;15.60;99.90
63383;DHT22;49512;48.744;9.176;2023-04-01T05:43:40;15.70;99.90
63383;DHT22;49512;48.744;9.176;2023-04-01T05:46:05;15.70;99.90
63383;DHT22;49512;48.744;9.176;2023-04-01T05:48:32;15.70;99.90
63383;DHT22;49512;48.744;9.176;2023-04-01T05:50:58;15.70;99.90
63383;DHT22;49512;48.744;9.176;2023-04-01T05:53:23;15.70;99.90
63383;DHT22;49512;48.744;9.176;2023-04-01T05:55:49;15.60;99.90
63383;DHT22;49512;48.744;9.176;2023-04-01T05:58:14;15.70;99.90
63383;DHT22;49512;48.744;9.176;2023-04-01T06:00:40;15.70;99.90
63383;DHT22;49512;48.744;9.176;2023-04-01T06:03:05;15.60;99.80
63383;DHT22;49512;48.744;9.176;2023-04-01T06:05:36;15.70;99.90
63383;DHT22;49512;48.744;9.176;2023-04-01T06:08:06;15.70;99.80
63383;DHT22;49512;48.744;9.176;2023-04-01T06:13:12;15.70;99.90
63383;DHT22;49512;48.744;9.176;2023-04-01T06:15:40;15.60;99.90
63383;DHT22;49512;48.744;9.176;2023-04-01T06:36:26;15.70;99.60
63383;DHT22;49512;48.744;9.176;2023-04-01T06:39:00;15.60;99.70
63383;DHT22;49512;48.744;9.176;2023-04-01T06:44:04;15.70;99.90
63383;DHT22;49512;48.744;9.176;2023-04-01T06:53:56;15.70;99.80
63383;DHT22;49512;48.744;9.176;2023-04-01T06:56:25;15.60;99.80
63383;DHT22;49512;48.744;9.176;2023-04-01T07:01:19;15.60;99.80
63383;DHT22;49512;48.744;9.176;2023-04-01T07:04:33;15.60;99.80
63383;DHT22;49512;48.744;9.176;2023-04-01T07:08:59;15.60;99.80
63383;DHT22;49512;48.744;9.176;2023-04-01T07:11:33;15.60;99.90
63383;DHT22;49512;48.744;9.176;2023-04-01T07:14:04;15.60;99.70
63383;DHT22;49512;48.744;9.176;2023-04-01T07:19:05;15.60;99.70
63383;DHT22;49512;48.744;9.176;2023-04-01T07:24:06;15.70;99.90
63383;DHT22;49512;48.744;9.176;2023-04-01T07:26:34;15.60;99.60
63383;DHT22;49512;48.744;9.176;2023-04-01T07:29:00;15.60;99.60
63383;DHT22;49512;48.744;9.176;2023-04-01T07:54:49;15.60;99.90
63383;DHT22;49512;48.744;9.176;2023-04-01T08:07:10;15.60;99.90
63383;DHT22;49512;48.744;9.176;2023-04-01T08:12:07;15.50;99.90
63383;DHT22;49512;48.744;9.176;2023-04-01T08:22:29;15.50;99.90
63383;DHT22;49512;48.744;9.176;2023-04-01T08:24:56;15.50;99.90
63383;DHT22;49512;48.744;9.176;2023-04-01T08:27:31;15.70;99.90
63383;DHT22;49512;48.744;9.176;2023-04-01T08:30:00;15.50;99.90
63383;DHT22;49512;48.744;9.176;2023-04-01T08:32:36;15.50;99.90
63383;DHT22;49512;48.744;9.176;2023-04-01T08:37:47;15.50;99.90
63383;DHT22;49512;48.744;9.176;2023-04-01T09:00:31;15.40;99.90
63383;DHT22;49512;48.744;9.176;2023-04-01T09:05:41;15.40;99.90
63383;DHT22;49512;48.744;9.176;2023-04-01T09:14:13;15.50;99.90
63383;DHT22;49512;48.744;9.176;2023-04-01T09:27:19;15.50;99.90
63383;DHT22;49512;48.744;9.176;2023-04-01T09:42:45;15.40;99.90
63383;DHT22;49512;48.744;9.176;2023-04-01T09:48:02;15.40;99.90
63383;DHT22;49512;48.744;9.176;2023-04-01T09:53:19;15.70;99.90
63383;DHT22;49512;48.744;9.176;2023-04-01T10:25:15;15.40;99.90
63383;DHT22;49512;48.744;9.176;2023-04-01T10:27:55;15.30;99.90
63383;DHT22;49512;48.744;9.176;2023-04-01T10:43:32;15.50;99.90
63383;DHT22;49512;48.744;9.176;2023-04-01T10:51:14;15.40;99.90
63383;DHT22;49512;48.744;9.176;2023-04-01T11:12:49;15.30;99.90
63383;DHT22;49512;48.744;9.176;2023-04-01T11:33:12;15.40;99.90
63383;DHT22;49512;48.744;9.176;2023-04-01T11:45:57;15.40;99.90
63383;DHT22;49512;48.744;9.176;2023-04-01T11:48:40;15.50;99.90
63383;DHT22;49512;48.744;9.176;2023-04-01T11:51:12;15.40;99.90
63383;DHT22;49512;48.744;9.176;2023-04-01T11:59:17;15.40;99.90
63383;DHT22;49512;48.744;9.176;2023-04-01T12:04:00;15.40;99.90
63383;DHT22;49512;48.744;9.176;2023-04-01T12:11:32;15.40;99.90
63383;DHT22;49512;48.744;9.176;2023-04-01T12:14:00;15.40;99.90
63383;DHT22;49512;48.744;9.176;2023-04-01T12:16:50;16.10;99.90
63383;DHT22;49512;48.744;9.176;2023-04-01T12:21:49;15.40;99.90
63383;DHT22;49512;48.744;9.176;2023-04-01T12:24:25;15.40;99.90
63383;DHT22;49512;48.744;9.176;2023-04-01T12:27:10;15.40;99.90
63383;DHT22;49512;48.744;9.176;2023-04-01T12:30:01;15.40;99.90
63383;DHT22;49512;48.744;9.176;2023-04-01T12:32:47;15.40;99.90
63383;DHT22;49512;48.744;9.176;2023-04-01T12:37:52;15.40;99.90
63383;DHT22;49512;48.744;9.176;2023-04-01T12:40:30;15.40;99.90
63383;DHT22;49512;48.744;9.176;2023-04-01T12:42:59;15.40;99.90
63383;DHT22;49512;48.744;9.176;2023-04-01T12:45:29;15.40;99.90
63383;DHT22;49512;48.744;9.176;2023-04-01T12:50:24;15.40;99.90
63383;DHT22;49512;48.744;9.176;2023-04-01T12:53:08;15.50;99.90
63383;DHT22;49512;48.744;9.176;2023-04-01T12:55:41;15.50;99.90
63383;DHT22;49512;48.744;9.176;2023-04-01T13:00:39;15.30;99.90
63383;DHT22;49512;48.744;9.176;2023-04-01T13:11:18;15.40;99.90
63383;DHT22;49512;48.744;9.176;2023-04-01T13:16:46;15.40;99.90
63383;DHT22;49512;48.744;9.176;2023-04-01T13:19:16;15.40;99.80
63383;DHT22;49512;48.744;9.176;2023-04-01T13:22:05;15.30;99.60
63383;DHT22;49512;48.744;9.176;2023-04-01T13:24:44;15.40;99.30
63383;DHT22;49512;48.744;9.176;2023-04-01T13:32:34;15.30;98.80
63383;DHT22;49512;48.744;9.176;2023-04-01T13:38:10;15.30;98.30
63383;DHT22;49512;48.744;9.176;2023-04-01T13:40:53;15.30;98.60
63383;DHT22;49512;48.744;9.176;2023-04-01T13:46:03;15.30;98.70
63383;DHT22;49512;48.744;9.176;2023-04-01T13:53:56;15.30;98.50
63383;DHT22;49512;48.744;9.176;2023-04-01T14:04:42;15.30;98.30
63383;DHT22;49512;48.744;9.176;2023-04-01T14:07:32;15.40;98.40
63383;DHT22;49512;48.744;9.176;2023-04-01T14:15:22;15.30;98.50
63383;DHT22;49512;48.744;9.176;2023-04-01T14:17:54;15.30;98.50
63383;DHT22;49512;48.744;9.176;2023-04-01T14:25:47;15.30;98.60
63383;DHT22;49512;48.744;9.176;2023-04-01T14:28:31;15.30;98.60
63383;DHT22;49512;48.744;9.176;2023-04-01T14:31:04;15.30;98.60
63383;DHT22;49512;48.744;9.176;2023-04-01T14:41:26;15.40;99.20
63383;DHT22;49512;48.744;9.176;2023-04-01T14:44:00;15.40;99.20
63383;DHT22;49512;48.744;9.176;2023-04-01T14:48:59;15.30;99.30
63383;DHT22;49512;48.744;9.176;2023-04-01T14:51:35;15.30;99.30
63383;DHT22;49512;48.744;9.176;2023-04-01T14:54:04;15.30;99.30
63383;DHT22;49512;48.744;9.176;2023-04-01T14:56:34;15.30;99.30
63383;DHT22;49512;48.744;9.176;2023-04-01T14:59:00;15.30;99.30
63383;DHT22;49512;48.744;9.176;2023-04-01T15:16:31;15.30;99.40
63383;DHT22;49512;48.744;9.176;2023-04-01T15:19:02;15.40;99.50
63383;DHT22;49512;48.744;9.176;2023-04-01T15:24:17;15.30;99.40
63383;DHT22;49512;48.744;9.176;2023-04-01T15:31:47;15.30;99.50
63383;DHT22;49512;48.744;9.176;2023-04-01T15:41:46;15.30;99.80
63383;DHT22;49512;48.744;9.176;2023-04-01T15:46:58;15.30;99.90
63383;DHT22;49512;48.744;9.176;2023-04-01T15:49:37;15.40;99.90
63383;DHT22;49512;48.744;9.176;2023-04-01T15:54:36;15.40;99.90
63383;DHT22;49512;48.744;9.176;2023-04-01T15:59:44;15.40;99.90
63383;DHT22;49512;48.744;9.176;2023-04-01T16:07:26;15.30;99.90
63383;DHT22;49512;48.744;9.176;2023-04-01T16:10:16;15.40;99.90
63383;DHT22;49512;48.744;9.176;2023-04-01T16:18:06;15.30;99.90
63383;DHT22;49512;48.744;9.176;2023-04-01T16:20:40;15.30;99.90
63383;DHT22;49512;48.744;9.176;2023-04-01T16:23:22;15.30;99.90
63383;DHT22;49512;48.744;9.176;2023-04-01T16:29:02;15.30;99.90
63383;DHT22;49512;48.744;9.176;2023-04-01T16:31:54;15.30;99.90
63383;DHT22;49512;48.744;9.176;2023-04-01T16:34:30;15.30;99.90
63383;DHT22;49512;48.744;9.176;2023-04-01T16:37:03;15.40;99.90
63383;DHT22;49512;48.744;9.176;2023-04-01T16:44:22;15.30;99.90
63383;DHT22;49512;48.744;9.176;2023-04-01T16:46:58;15.30;99.90
63383;DHT22;49512;48.744;9.176;2023-04-01T16:55:01;15.30;99.90
63383;DHT22;49512;48.744;9.176;2023-04-01T16:57:35;15.30;99.90
63383;DHT22;49512;48.744;9.176;2023-04-01T17:02:37;15.40;99.90
63383;DHT22;49512;48.744;9.176;2023-04-01T17:05:04;15.30;99.90
63383;DHT22;49512;48.744;9.176;2023-04-01T17:20:20;15.40;99.90
63383;DHT22;49512;48.744;9.176;2023-04-01T17:40:51;15.70;99.90
63383;DHT22;49512;48.744;9.176;2023-04-01T17:45:46;15.40;99.90
63383;DHT22;49512;48.744;9.176;2023-04-01T17:51:01;15.60;99.90
63383;DHT22;49512;48.744;9.176;2023-04-01T17:56:31;15.60;99.90
63383;DHT22;49512;48.744;9.176;2023-04-01T17:58:59;15.50;99.90
63383;DHT22;49512;48.744;9.176;2023-04-01T18:04:31;15.80;99.90
63383;DHT22;49512;48.744;9.176;2023-04-01T18:09:37;15.40;99.90
63383;DHT22;49512;48.744;9.176;2023-04-01T18:12:15;15.40;99.90
63383;DHT22;49512;48.744;9.176;2023-04-01T18:14:50;15.70;99.90
63383;DHT22;49512;48.744;9.176;2023-04-01T18:19:48;15.40;99.90
63383;DHT22;49512;48.744;9.176;2023-04-01T18:22:19;15.30;99.90
63383;DHT22;49512;48.744;9.176;2023-04-01T18:24:47;15.30;99.90
63383;DHT22;49512;48.744;9.176;2023-04-01T18:27:24;15.30;99.90
63383;DHT22;49512;48.744;9.176;2023-04-01T18:29:56;15.30;99.90
63383;DHT22;49512;48.744;9.176;2023-04-01T18:32:33;15.90;99.90
63383;DHT22;49512;48.744;9.176;2023-04-01T18:47:54;15.30;99.90
63383;DHT22;49512;48.744;9.176;2023-04-01T18:52:46;15.30;99.90
63383;DHT22;49512;48.744;9.176;2023-04-01T18:58:11;15.40;99.90
63383;DHT22;49512;48.744;9.176;2023-04-01T19:00:42;15.30;99.90
63383;DHT22;49512;48.744;9.176;2023-04-01T19:05:36;15.30;99.90
63383;DHT22;49512;48.744;9.176;2023-04-01T19:11:24;15.40;99.90
63383;DHT22;49512;48.744;9.176;2023-04-01T19:20:56;15.30;99.90
63383;DHT22;49512;48.744;9.176;2023-04-01T19:25:58;15.30;99.90
63383;DHT22;49512;48.744;9.176;2023-04-01T19:41:10;15.30;99.90
63383;DHT22;49512;48.744;9.176;2023-04-01T19:46:13;15.30;99.90
63383;DHT22;49512;48.744;9.176;2023-04-01T19:48:48;15.30;99.90
63383;DHT22;49512;48.744;9.176;2023-04-01T19:51:18;15.30;99.90
63383;DHT22;49512;48.744;9.176;2023-04-01T19:53:53;15.30;99.90
63383;DHT22;49512;48.744;9.176;2023-04-01T19:56:22;15.30;99.90
63383;DHT22;49512;48.744;9.176;2023-04-01T19:58:54;15.30;99.90
63383;DHT22;49512;48.744;9.176;2023-04-01T20:06:58;15.30;99.90
63383;DHT22;49512;48.744;9.176;2023-04-01T20:12:10;15.30;99.90
63383;DHT22;49512;48.744;9.176;2023-04-01T20:25:05;15.30;99.90
63383;DHT22;49512;48.744;9.176;2023-04-01T20:27:41;15.30;99.90
63383;DHT22;49512;48.744;9.176;2023-04-01T20:32:47;15.30;99.90
63383;DHT22;49512;48.744;9.176;2023-04-01T20:38:11;15.30;99.90
63383;DHT22;49512;48.744;9.176;2023-04-01T20:41:26;15.30;99.90
63383;DHT22;49512;48.744;9.176;2023-04-01T20:51:18;15.30;99.90
63383;DHT22;49512;48.744;9.176;2023-04-01T20:53:50;15.30;99.90
63383;DHT22;49512;48.744;9.176;2023-04-01T20:58:58;15.30;99.90
63383;DHT22;49512;48.744;9.176;2023-04-01T21:01:34;15.30;99.90
63383;DHT22;49512;48.744;9.176;2023-04-01T21:17:01;15.30;99.90
63383;DHT22;49512;48.744;9.176;2023-04-01T21:19:36;15.30;99.90
63383;DHT22;49512;48.744;9.176;2023-04-01T21:34:52;15.30;99.90
63383;DHT22;49512;48.744;9.176;2023-04-01T21:45:05;15.30;99.90
63383;DHT22;49512;48.744;9.176;2023-04-01T21:53:00;15.30;99.90
63383;DHT22;49512;48.744;9.176;2023-04-01T22:06:23;15.30;99.90
63383;DHT22;49512;48.744;9.176;2023-04-01T22:08:56;15.30;99.90
63383;DHT22;49512;48.744;9.176;2023-04-01T22:11:46;15.30;99.90
63383;DHT22;49512;48.744;9.176;2023-04-01T22:14:16;15.30;99.90
63383;DHT22;49512;48.744;9.176;2023-04-01T22:16:50;15.20;99.90
63383;DHT22;49512;48.744;9.176;2023-04-01T22:27:17;15.20;99.90
63383;DHT22;49512;48.744;9.176;2023-04-01T22:32:34;15.20;99.90
63383;DHT22;49512;48.744;9.176;2023-04-01T22:42:43;15.20;99.90
63383;DHT22;49512;48.744;9.176;2023-04-01T22:52:49;15.50;99.90
63383;DHT22;49512;48.744;9.176;2023-04-01T22:55:17;15.60;99.90
63383;DHT22;49512;48.744;9.176;2023-04-01T23:00:16;15.20;99.90
63383;DHT22;49512;48.744;9.176;2023-04-01T23:03:00;15.20;99.90
63383;DHT22;49512;48.744;9.176;2023-04-01T23:05:29;15.20;99.90
63383;DHT22;49512;48.744;9.176;2023-04-01T23:10:40;15.20;99.90
63383;DHT22;49512;48.744;9.176;2023-04-01T23:13:10;15.20;99.90
63383;DHT22;49512;48.744;9.176;2023-04-01T23:15:37;15.20;99.90
63383;DHT22;49512;48.744;9.176;2023-04-01T23:18:12;15.20;99.90
63383;DHT22;49512;48.744;9.176;2023-04-01T23:30:48;15.20;99.90
63383;DHT22;49512;48.744;9.176;2023-04-01T23:35:49;15.20;99.90
63383;DHT22;49512;48.744;9.176;2023-04-01T23:38:15;15.20;99.90
63383;DHT22;49512;48.744;9.176;2023-04-01T23:40:41;15.20;99.90
63383;DHT22;49512;48.744;9.176;2023-04-01T23:43:40;15.10;99.90
63383;DHT22;49512;48.744;9.176;2023-04-01T23:46:00;15.20;99.90
63383;DHT22;49512;48.744;9.176;2023-04-01T23:48:28;15.20;99.90
63383;DHT22;49512;48.744;9.176;2023-04-01T23:50:55;15.20;99.90
63383;DHT22;49512;48.744;9.176;2023-04-01T23:53:23;15.20;99.90
63383;DHT22;49512;48.744;9.176;2023-04-01T23:55:50;15.20;99.90
